Time;durP1;ratioP1;P1;durP2;ratioP2;P2;SDS_P1;SDS_P2;PMS_P1;PMS_P2;Temp;Humidity;BMP_temperature;BMP_pressure;BME280_temperature;BME280_humidity;BME280_pressure;Samples;Min_cycle;Max_cycle;Signal;HPM_P1;HPM_P2
2022/01/19 00:00:53;;;;;;;15.15;8.15;;;8.20;83.20;;;;;;5061663;28;20418;-82
2022/01/19 00:03:19;;;;;;;14.63;8.15;;;8.20;83.20;;;;;;5063390;28;20032;-82
2022/01/19 00:05:45;;;;;;;16.33;9.75;;;8.10;83.10;;;;;;5056595;28;20033;-83
2022/01/19 00:08:16;;;;;;;17.40;9.98;;;8.20;83.00;;;;;;5065515;28;20016;-82
2022/01/19 00:10:43;;;;;;;15.25;9.30;;;8.20;83.00;;;;;;5061287;28;20025;-82
2022/01/19 00:13:09;;;;;;;16.15;8.48;;;8.10;83.10;;;;;;5067810;28;20517;-81
2022/01/19 00:15:34;;;;;;;17.38;9.25;;;8.10;83.10;;;;;;5056800;28;20037;-81
2022/01/19 00:18:00;;;;;;;18.45;8.77;;;8.10;83.00;;;;;;5061899;28;20057;-81
2022/01/19 00:20:28;;;;;;;16.98;9.57;;;8.10;82.90;;;;;;5067475;28;20027;-80
2022/01/19 00:22:54;;;;;;;17.58;9.82;;;8.10;82.90;;;;;;5064108;28;20132;-81
2022/01/19 00:25:20;;;;;;;18.50;9.88;;;8.10;83.20;;;;;;5068998;28;20028;-80
2022/01/19 00:27:46;;;;;;;18.02;9.25;;;8.20;83.30;;;;;;5068697;28;20124;-81
2022/01/19 00:30:12;;;;;;;20.15;9.95;;;8.30;83.20;;;;;;5068994;28;20461;-81
2022/01/19 00:32:39;;;;;;;13.15;7.90;;;8.30;83.00;;;;;;5065655;28;20045;-81
2022/01/19 00:35:06;;;;;;;16.20;8.50;;;8.30;82.90;;;;;;5065050;28;20383;-80
2022/01/19 00:37:32;;;;;;;15.32;8.82;;;8.40;82.90;;;;;;5070048;28;20039;-81
2022/01/19 00:39:58;;;;;;;16.65;9.07;;;8.30;82.80;;;;;;5061790;28;20383;-81
2022/01/19 00:42:23;;;;;;;19.35;9.43;;;8.30;82.70;;;;;;5069685;28;20096;-80
2022/01/19 00:44:49;;;;;;;16.77;9.13;;;8.40;82.80;;;;;;5065591;28;20028;-80
2022/01/19 00:47:15;;;;;;;18.02;9.77;;;8.40;82.90;;;;;;5066923;28;20035;-81
2022/01/19 00:49:42;;;;;;;16.75;8.85;;;8.40;82.80;;;;;;5062574;28;20024;-82
2022/01/19 00:52:09;;;;;;;16.55;9.02;;;8.40;82.70;;;;;;5066439;28;20083;-81
2022/01/19 00:54:35;;;;;;;18.05;9.50;;;8.50;82.80;;;;;;5065809;28;20029;-82
2022/01/19 00:57:00;;;;;;;16.38;10.02;;;8.50;82.60;;;;;;5067233;28;20408;-83
2022/01/19 00:59:26;;;;;;;17.92;10.27;;;8.50;82.50;;;;;;5057696;28;20033;-82
2022/01/19 01:01:51;;;;;;;17.35;9.32;;;8.40;82.50;;;;;;5059745;28;20542;-83
2022/01/19 01:04:17;;;;;;;17.02;9.25;;;8.40;82.60;;;;;;5066158;28;20024;-83
2022/01/19 01:06:42;;;;;;;19.42;9.98;;;8.40;82.80;;;;;;5063247;28;20036;-83
2022/01/19 01:09:08;;;;;;;19.00;10.77;;;8.50;82.90;;;;;;5065970;28;20054;-82
2022/01/19 01:11:36;;;;;;;22.08;11.20;;;8.50;83.20;;;;;;5070259;28;20017;-82
2022/01/19 01:16:36;;;;;;;18.83;11.50;;;8.50;82.50;;;;;;5069200;28;20024;-81
2022/01/19 01:19:04;;;;;;;19.48;11.00;;;8.50;82.30;;;;;;5063342;28;20028;-80
2022/01/19 01:21:30;;;;;;;18.17;11.18;;;8.50;82.20;;;;;;5067929;28;20100;-81
2022/01/19 01:23:56;;;;;;;21.38;11.10;;;8.50;82.10;;;;;;5065501;28;20036;-80
2022/01/19 01:26:21;;;;;;;19.80;10.95;;;8.40;81.90;;;;;;5074027;28;20076;-81
2022/01/19 01:28:47;;;;;;;18.45;9.85;;;8.30;82.60;;;;;;5062693;28;20048;-81
2022/01/19 01:31:13;;;;;;;18.35;10.25;;;8.30;82.10;;;;;;5063333;28;20536;-82
2022/01/19 01:33:39;;;;;;;20.20;11.10;;;8.10;82.20;;;;;;5068519;28;20036;-80
2022/01/19 01:36:05;;;;;;;20.10;10.73;;;8.00;82.40;;;;;;5066234;28;20562;-81
2022/01/19 01:38:31;;;;;;;17.15;10.05;;;8.00;82.70;;;;;;5063233;28;20107;-81
2022/01/19 01:40:57;;;;;;;19.13;11.00;;;8.00;82.80;;;;;;5062036;28;20028;-82
2022/01/19 01:43:23;;;;;;;27.35;13.50;;;8.00;82.90;;;;;;5064141;28;20017;-81
2022/01/19 01:45:53;;;;;;;23.95;12.40;;;8.00;82.80;;;;;;5061632;28;20551;-81
2022/01/19 01:48:22;;;;;;;24.98;12.43;;;8.00;82.70;;;;;;5058682;28;20029;-83
2022/01/19 01:53:34;;;;;;;16.25;9.90;;;8.00;82.50;;;;;;5059841;28;20091;-83
2022/01/19 01:56:02;;;;;;;19.70;11.15;;;7.90;82.40;;;;;;5063494;28;20099;-83
2022/01/19 01:58:30;;;;;;;21.45;10.88;;;7.90;82.50;;;;;;5059193;28;20028;-82
2022/01/19 02:00:56;;;;;;;25.77;13.85;;;7.90;82.60;;;;;;5060249;28;20074;-82
2022/01/19 02:03:23;;;;;;;24.35;13.52;;;7.80;82.60;;;;;;5069293;28;20023;-82
2022/01/19 02:08:41;;;;;;;22.25;12.68;;;7.70;83.00;;;;;;5060259;28;20054;-82
2022/01/19 02:11:35;;;;;;;24.40;11.45;;;7.60;83.10;;;;;;5063504;28;20078;-82
2022/01/19 02:21:37;;;;;;;25.48;13.38;;;7.40;83.30;;;;;;5068681;28;20039;-82
2022/01/19 02:22:31;;;;;;;22.30;11.60;;;7.30;83.70;;;;;;5068616;28;20094;-81
2022/01/19 02:24:56;;;;;;;22.65;11.98;;;7.20;83.70;;;;;;5066588;28;20463;-83
2022/01/19 02:41:06;;;;;;;23.25;12.95;;;6.80;85.00;;;;;;5060807;28;20077;-82
2022/01/19 02:43:31;;;;;;;23.92;13.68;;;6.80;84.90;;;;;;5066583;28;20025;-82
2022/01/19 02:51:26;;;;;;;19.17;10.73;;;6.60;85.30;;;;;;5063514;28;20032;-83
2022/01/19 02:53:51;;;;;;;25.88;14.25;;;6.60;85.30;;;;;;5063291;28;20033;-84
2022/01/19 02:56:28;;;;;;;21.80;12.55;;;6.60;85.30;;;;;;5068107;28;20062;-81
2022/01/19 02:59:03;;;;;;;27.15;14.02;;;6.60;85.10;;;;;;5068380;28;20016;-82
2022/01/19 03:09:24;;;;;;;27.88;15.68;;;6.50;85.40;;;;;;5071658;28;20036;-80
2022/01/19 03:11:50;;;;;;;23.02;13.40;;;6.50;85.30;;;;;;5070188;28;20028;-81
2022/01/19 03:14:17;;;;;;;23.48;14.60;;;6.50;85.40;;;;;;5062124;28;20048;-81
2022/01/19 03:16:43;;;;;;;22.45;12.77;;;6.50;85.30;;;;;;5064885;28;20025;-81
2022/01/19 03:19:10;;;;;;;25.00;13.50;;;6.60;85.40;;;;;;5062884;28;20499;-80
2022/01/19 03:21:36;;;;;;;23.92;13.50;;;6.60;85.10;;;;;;5070609;28;20023;-81
2022/01/19 03:24:03;;;;;;;23.00;12.10;;;6.60;85.10;;;;;;5073275;28;20028;-81
2022/01/19 03:26:28;;;;;;;22.50;13.55;;;6.60;85.00;;;;;;5062888;28;20112;-81
2022/01/19 03:28:54;;;;;;;25.55;13.80;;;6.60;84.80;;;;;;5071982;28;20029;-81
2022/01/19 03:31:20;;;;;;;30.35;16.38;;;6.60;84.80;;;;;;5067812;28;20020;-81
2022/01/19 03:33:45;;;;;;;21.13;12.43;;;6.60;84.80;;;;;;5065283;28;20142;-82
2022/01/19 03:36:11;;;;;;;25.15;14.02;;;6.60;84.80;;;;;;5070167;28;20093;-82
2022/01/19 03:38:37;;;;;;;20.17;11.52;;;6.50;84.60;;;;;;5071024;28;20016;-82
2022/01/19 03:41:02;;;;;;;20.85;12.88;;;6.60;84.60;;;;;;5070239;28;20024;-86
2022/01/19 03:43:28;;;;;;;22.30;13.25;;;6.60;84.40;;;;;;5062664;28;20027;-83
2022/01/19 03:45:54;;;;;;;20.45;12.02;;;6.60;84.40;;;;;;5066895;28;20029;-81
2022/01/19 03:48:38;;;;;;;20.98;13.13;;;6.60;84.40;;;;;;5069885;28;20040;-83
2022/01/19 03:51:04;;;;;;;23.50;12.90;;;6.60;84.40;;;;;;5059739;28;20025;-82
2022/01/19 03:53:30;;;;;;;19.75;11.60;;;6.60;84.20;;;;;;5068945;28;20044;-82
2022/01/19 03:55:56;;;;;;;18.55;11.10;;;6.50;84.20;;;;;;5066032;28;20528;-81
2022/01/19 03:58:21;;;;;;;13.75;8.45;;;6.60;84.20;;;;;;5066576;28;20020;-82
2022/01/19 04:00:53;;;;;;;15.77;9.27;;;6.50;84.10;;;;;;5064357;28;20025;-82
2022/01/19 04:03:22;;;;;;;16.13;9.80;;;6.50;84.10;;;;;;5058661;28;20077;-81
2022/01/19 04:05:59;;;;;;;16.95;9.50;;;6.50;84.00;;;;;;5065086;28;20025;-82
2022/01/19 04:08:25;;;;;;;16.63;10.18;;;6.50;84.50;;;;;;5066344;28;20042;-82
2022/01/19 04:10:51;;;;;;;14.38;9.13;;;6.50;83.70;;;;;;5069411;28;20021;-82
2022/01/19 04:15:54;;;;;;;12.18;7.25;;;6.50;83.70;;;;;;5061786;28;20052;-82
2022/01/19 04:18:20;;;;;;;15.80;9.65;;;6.50;83.70;;;;;;5069954;28;20071;-82
2022/01/19 04:20:50;;;;;;;17.35;10.50;;;6.50;83.80;;;;;;5070012;28;20589;-82
2022/01/19 04:23:16;;;;;;;16.17;9.43;;;6.40;83.50;;;;;;5057769;28;20032;-81
2022/01/19 04:25:42;;;;;;;14.00;8.13;;;6.40;83.50;;;;;;5067643;28;20029;-81
2022/01/19 04:28:08;;;;;;;15.73;9.50;;;6.40;83.50;;;;;;5074820;28;20467;-81
2022/01/19 04:30:38;;;;;;;16.48;10.23;;;6.40;83.70;;;;;;5066187;28;20035;-81
2022/01/19 04:33:11;;;;;;;11.88;7.22;;;6.40;83.60;;;;;;5067882;28;20699;-80
2022/01/19 04:35:51;;;;;;;12.63;7.90;;;6.40;83.60;;;;;;5066346;28;20486;-81
2022/01/19 05:05:11;;;;;;;13.82;8.38;;;6.10;83.20;;;;;;5068876;28;20036;-80
2022/01/19 05:07:45;;;;;;;14.43;8.25;;;6.00;83.20;;;;;;5067515;28;20028;-80
2022/01/19 05:15:32;;;;;;;18.35;11.02;;;5.80;83.00;;;;;;5060649;28;20031;-81
2022/01/19 05:17:58;;;;;;;11.52;8.05;;;5.70;83.00;;;;;;5066240;28;20021;-82
2022/01/19 05:20:23;;;;;;;12.48;8.25;;;5.80;83.20;;;;;;5063072;28;20382;-80
2022/01/19 05:22:49;;;;;;;15.07;9.75;;;5.80;83.30;;;;;;5068543;28;20032;-80
2022/01/19 05:25:14;;;;;;;15.07;8.68;;;5.80;83.10;;;;;;5074680;28;20036;-81
2022/01/19 05:27:40;;;;;;;13.05;8.73;;;5.70;83.10;;;;;;5066614;28;20024;-81
2022/01/19 05:30:06;;;;;;;14.15;9.05;;;5.70;83.10;;;;;;5061528;28;20119;-82
2022/01/19 05:32:31;;;;;;;13.57;8.85;;;5.70;83.20;;;;;;5062339;28;20025;-81
2022/01/19 05:34:57;;;;;;;13.77;8.88;;;5.80;83.20;;;;;;5056689;28;20020;-81
2022/01/19 05:37:22;;;;;;;13.07;8.63;;;5.90;83.20;;;;;;5068280;28;20028;-80
2022/01/19 05:39:48;;;;;;;16.13;10.50;;;5.90;83.20;;;;;;5062121;28;20056;-80
2022/01/19 05:42:15;;;;;;;13.85;9.40;;;6.00;83.00;;;;;;5066233;28;20119;-79
2022/01/19 05:44:46;;;;;;;13.32;9.00;;;5.90;82.90;;;;;;5066331;28;20024;-81
2022/01/19 05:47:12;;;;;;;12.27;8.57;;;6.00;82.90;;;;;;5057952;28;20024;-80
2022/01/19 05:49:39;;;;;;;13.57;9.80;;;6.10;82.90;;;;;;5058438;28;20086;-81
2022/01/19 05:52:06;;;;;;;14.30;9.23;;;5.90;82.60;;;;;;5062528;28;20032;-81
2022/01/19 05:54:32;;;;;;;14.95;9.50;;;5.90;82.70;;;;;;5061212;28;20064;-80
2022/01/19 05:56:58;;;;;;;18.13;12.68;;;5.80;82.70;;;;;;5064650;28;20012;-79
2022/01/19 05:59:24;;;;;;;14.98;10.73;;;5.80;82.50;;;;;;5066656;28;20044;-84
2022/01/19 06:01:50;;;;;;;14.85;10.32;;;5.70;82.60;;;;;;5064992;28;20055;-83
2022/01/19 06:04:15;;;;;;;15.85;9.75;;;5.70;82.90;;;;;;5066914;28;20081;-84
2022/01/19 06:06:41;;;;;;;12.63;8.80;;;5.70;82.90;;;;;;5064056;28;20101;-83
2022/01/19 06:09:21;;;;;;;14.02;9.52;;;5.80;82.90;;;;;;5060609;28;20025;-81
2022/01/19 06:11:47;;;;;;;19.63;12.95;;;5.90;82.80;;;;;;5061259;28;20390;-82
2022/01/19 06:14:13;;;;;;;16.95;10.57;;;5.90;82.70;;;;;;5063948;28;20048;-82
2022/01/19 06:16:39;;;;;;;12.93;9.43;;;5.80;82.70;;;;;;5059809;28;20029;-82
2022/01/19 06:19:05;;;;;;;16.48;10.70;;;5.80;82.80;;;;;;5061131;28;20031;-81
2022/01/19 06:21:31;;;;;;;15.80;10.82;;;5.80;82.70;;;;;;5060113;28;20394;-82
2022/01/19 06:23:57;;;;;;;18.42;12.35;;;5.80;82.80;;;;;;5072241;28;20035;-84
2022/01/19 06:26:22;;;;;;;19.50;12.98;;;5.70;82.70;;;;;;5069088;28;20038;-83
2022/01/19 06:28:48;;;;;;;24.48;15.43;;;5.80;82.90;;;;;;5080463;28;20024;-84
2022/01/19 06:31:13;;;;;;;33.75;20.27;;;5.60;82.60;;;;;;5068583;28;20079;-82
2022/01/19 06:33:39;;;;;;;32.20;18.80;;;5.50;82.50;;;;;;5062765;28;20533;-82
2022/01/19 06:36:05;;;;;;;26.10;15.43;;;5.30;82.70;;;;;;5067722;28;20532;-82
2022/01/19 06:38:31;;;;;;;25.10;14.95;;;5.30;83.10;;;;;;5072437;28;20031;-82
2022/01/19 06:40:57;;;;;;;35.28;20.80;;;5.40;83.30;;;;;;5072202;28;20115;-82
2022/01/19 06:43:22;;;;;;;25.38;15.75;;;5.30;83.20;;;;;;5072297;28;20028;-84
2022/01/19 06:45:48;;;;;;;31.48;18.90;;;5.20;83.40;;;;;;5068276;28;20025;-85
2022/01/19 06:48:14;;;;;;;31.98;17.98;;;5.10;83.40;;;;;;5064306;28;20041;-82
2022/01/19 06:50:39;;;;;;;32.08;18.25;;;5.10;84.20;;;;;;5057767;28;20025;-83
2022/01/19 06:53:05;;;;;;;34.15;19.02;;;5.00;83.70;;;;;;5062157;28;20039;-84
2022/01/19 06:55:31;;;;;;;31.88;17.75;;;5.00;83.80;;;;;;5072169;28;20021;-80
2022/01/19 06:57:57;;;;;;;49.80;24.40;;;4.90;84.00;;;;;;5065514;28;20032;-81
2022/01/19 07:00:22;;;;;;;39.97;21.98;;;5.00;84.10;;;;;;5072867;28;20013;-82
2022/01/19 07:02:48;;;;;;;37.30;20.85;;;4.80;84.20;;;;;;5066665;28;20399;-80
2022/01/19 07:05:13;;;;;;;47.75;23.90;;;4.70;84.40;;;;;;5068852;28;20512;-81
2022/01/19 07:07:39;;;;;;;45.80;25.67;;;4.70;84.60;;;;;;5067119;28;20044;-81
2022/01/19 07:10:07;;;;;;;37.63;20.58;;;4.60;84.70;;;;;;5067232;28;20032;-82
2022/01/19 07:12:33;;;;;;;36.55;18.77;;;4.60;85.00;;;;;;5072032;28;20394;-82
2022/01/19 07:14:58;;;;;;;38.95;20.95;;;4.60;85.10;;;;;;5070496;28;20012;-83
2022/01/19 07:17:24;;;;;;;28.60;16.33;;;4.60;85.00;;;;;;5060871;28;20089;-82
2022/01/19 07:19:50;;;;;;;33.15;18.63;;;4.70;85.10;;;;;;5070766;28;20025;-83
2022/01/19 07:22:18;;;;;;;32.58;16.42;;;4.70;85.10;;;;;;5073101;28;20017;-82
2022/01/19 07:24:44;;;;;;;34.97;18.65;;;4.60;85.10;;;;;;5072791;28;20043;-88
2022/01/19 07:27:09;;;;;;;34.08;18.17;;;4.60;85.10;;;;;;5087130;28;20051;-86
2022/01/19 07:29:35;;;;;;;37.95;21.17;;;4.60;85.30;;;;;;5068986;28;20016;-83
2022/01/19 07:32:01;;;;;;;39.00;21.17;;;4.50;85.10;;;;;;5071946;28;20111;-84
2022/01/19 07:34:28;;;;;;;35.28;20.13;;;4.50;85.30;;;;;;5067528;28;20035;-85
2022/01/19 07:36:55;;;;;;;44.30;23.60;;;4.50;85.50;;;;;;5071167;28;20066;-83
2022/01/19 07:39:22;;;;;;;38.72;22.52;;;4.50;85.60;;;;;;5070225;28;20498;-82
2022/01/19 07:41:48;;;;;;;39.70;21.55;;;4.50;85.60;;;;;;5070735;28;20039;-84
2022/01/19 07:44:14;;;;;;;33.70;17.30;;;4.40;85.70;;;;;;5067076;28;20048;-81
2022/01/19 07:46:40;;;;;;;26.33;14.25;;;4.40;85.70;;;;;;5068208;28;20108;-82
2022/01/19 07:49:06;;;;;;;29.42;14.73;;;4.60;85.90;;;;;;5062685;28;20024;-81
2022/01/19 07:51:31;;;;;;;30.80;15.73;;;4.60;85.80;;;;;;5064367;28;20190;-81
2022/01/19 07:53:57;;;;;;;38.75;20.23;;;4.70;85.70;;;;;;5064904;28;20704;-81
2022/01/19 07:56:22;;;;;;;29.95;16.55;;;4.70;85.60;;;;;;5069264;28;20024;-85
2022/01/19 07:58:48;;;;;;;39.25;19.45;;;4.60;85.60;;;;;;5069351;28;20056;-84
2022/01/19 08:01:14;;;;;;;32.70;18.58;;;4.70;85.70;;;;;;5065833;28;20099;-81
2022/01/19 08:03:40;;;;;;;27.52;15.55;;;4.60;85.60;;;;;;5061898;28;20075;-82
2022/01/19 08:06:06;;;;;;;23.55;13.80;;;4.60;85.60;;;;;;5065591;28;20028;-78
2022/01/19 08:08:32;;;;;;;27.85;15.23;;;4.60;85.70;;;;;;5062424;28;20029;-80
2022/01/19 08:10:57;;;;;;;23.17;13.32;;;4.70;85.80;;;;;;5069483;28;20485;-78
2022/01/19 08:13:23;;;;;;;30.80;17.38;;;4.70;85.80;;;;;;5066427;28;20083;-81
2022/01/19 08:15:49;;;;;;;35.78;19.73;;;4.70;85.60;;;;;;5066347;28;20032;-82
2022/01/19 08:18:15;;;;;;;30.00;17.08;;;4.80;85.60;;;;;;5063372;28;20025;-85
2022/01/19 08:20:43;;;;;;;31.38;17.35;;;4.70;85.50;;;;;;5067815;28;20032;-81
2022/01/19 08:23:09;;;;;;;29.15;16.40;;;4.70;85.60;;;;;;5069892;28;20062;-82
2022/01/19 08:25:34;;;;;;;36.92;20.63;;;4.70;85.50;;;;;;5076783;28;20039;-80
2022/01/19 08:28:00;;;;;;;30.27;17.35;;;4.70;85.50;;;;;;5070696;28;20025;-80
2022/01/19 08:30:25;;;;;;;30.40;17.35;;;4.70;85.60;;;;;;5066364;28;20032;-81
2022/01/19 08:32:51;;;;;;;33.00;18.63;;;4.70;85.60;;;;;;5063957;28;20039;-82
2022/01/19 08:35:17;;;;;;;41.63;23.42;;;4.70;85.60;;;;;;5061153;28;20017;-82
2022/01/19 08:37:42;;;;;;;32.50;17.48;;;4.60;85.60;;;;;;5062388;28;20165;-83
2022/01/19 08:40:09;;;;;;;31.58;17.92;;;4.60;85.80;;;;;;5063138;28;20424;-82
2022/01/19 08:42:36;;;;;;;32.47;19.23;;;4.60;85.80;;;;;;5060235;28;20026;-81
2022/01/19 08:45:07;;;;;;;32.20;18.90;;;4.60;85.80;;;;;;5068117;28;20070;-83
2022/01/19 08:47:34;;;;;;;32.00;18.80;;;4.70;85.90;;;;;;5063619;28;20104;-81
2022/01/19 08:50:00;;;;;;;22.98;13.25;;;4.60;85.80;;;;;;5056777;28;20036;-83
2022/01/19 08:52:26;;;;;;;26.20;15.40;;;4.70;85.90;;;;;;5067722;28;20033;-82
2022/01/19 08:54:51;;;;;;;34.80;20.50;;;4.70;85.80;;;;;;5061873;28;20025;-83
2022/01/19 08:57:18;;;;;;;33.78;20.92;;;4.70;85.80;;;;;;5061403;28;20514;-80
2022/01/19 08:59:43;;;;;;;29.77;17.95;;;4.70;85.80;;;;;;5061017;28;20083;-79
2022/01/19 09:02:10;;;;;;;36.22;22.77;;;4.60;85.90;;;;;;5066675;28;20029;-82
2022/01/19 09:04:36;;;;;;;36.17;22.20;;;4.60;85.90;;;;;;5065560;28;20025;-79
2022/01/19 09:07:02;;;;;;;37.58;21.52;;;4.60;86.00;;;;;;5066765;28;20557;-82
2022/01/19 09:09:27;;;;;;;28.95;17.60;;;4.60;86.10;;;;;;5063312;28;20750;-79
2022/01/19 09:11:53;;;;;;;29.75;18.08;;;4.60;86.10;;;;;;5065665;28;20487;-81
2022/01/19 09:14:18;;;;;;;32.47;19.35;;;4.60;86.10;;;;;;5062002;28;20506;-80
2022/01/19 09:16:49;;;;;;;28.00;17.00;;;4.70;86.10;;;;;;5065743;28;20035;-78
2022/01/19 09:19:15;;;;;;;27.30;16.10;;;4.70;86.10;;;;;;5069651;28;20032;-78
2022/01/19 09:21:40;;;;;;;28.90;17.27;;;4.70;86.10;;;;;;5073523;28;20036;-80
2022/01/19 09:24:06;;;;;;;24.45;15.60;;;4.70;86.00;;;;;;5079714;28;20039;-78
2022/01/19 09:26:31;;;;;;;35.22;21.20;;;4.80;86.10;;;;;;5074155;28;20404;-79
2022/01/19 09:28:57;;;;;;;34.05;21.45;;;4.80;86.00;;;;;;5075358;28;20031;-79
2022/01/19 09:31:23;;;;;;;29.77;17.92;;;4.80;86.00;;;;;;5072845;28;20498;-80
2022/01/19 09:34:02;;;;;;;33.63;20.92;;;4.80;86.10;;;;;;5074560;28;20047;-82
2022/01/19 09:38:56;;;;;;;21.38;13.35;;;4.80;86.10;;;;;;5071508;28;20036;-82
2022/01/19 09:41:22;;;;;;;25.35;16.35;;;4.80;86.10;;;;;;5076615;28;20032;-81
2022/01/19 09:43:47;;;;;;;25.25;15.45;;;4.80;86.00;;;;;;5073914;28;20035;-78
2022/01/19 09:46:13;;;;;;;29.95;17.40;;;4.80;86.10;;;;;;5075768;28;20050;-85
2022/01/19 09:48:40;;;;;;;30.77;19.33;;;4.80;86.20;;;;;;5070364;28;20105;-84
2022/01/19 09:51:05;;;;;;;30.90;19.88;;;4.80;86.20;;;;;;5076218;28;20032;-84
2022/01/19 09:53:31;;;;;;;27.20;17.20;;;4.80;86.20;;;;;;5074898;28;20037;-84
2022/01/19 09:55:57;;;;;;;28.67;16.83;;;4.80;86.20;;;;;;5073698;28;20027;-81
2022/01/19 09:58:22;;;;;;;29.80;18.58;;;4.90;86.10;;;;;;5057802;28;20105;-81
2022/01/19 10:00:49;;;;;;;22.25;13.73;;;4.80;86.10;;;;;;5066289;28;20024;-78
2022/01/19 10:03:17;;;;;;;36.25;23.23;;;4.90;86.20;;;;;;5074554;28;20115;-81
2022/01/19 10:05:56;;;;;;;29.63;19.20;;;4.90;86.10;;;;;;5088077;28;20048;-81
2022/01/19 10:08:29;;;;;;;32.70;19.92;;;4.80;86.20;;;;;;5070705;28;20035;-82
2022/01/19 10:17:01;;;;;;;;;;;4.90;86.30;;;;;;5075755;28;20098;-82
2022/01/19 10:19:38;;;;;;;29.40;18.05;;;4.90;86.20;;;;;;5075588;28;19940;-81
2022/01/19 10:22:06;;;;;;;28.45;17.63;;;4.80;86.30;;;;;;5079777;28;20041;-84
2022/01/19 10:24:50;;;;;;;24.13;15.75;;;4.80;86.30;;;;;;5076623;28;20065;-81
2022/01/19 10:27:40;;;;;;;26.35;16.77;;;4.80;86.40;;;;;;5074559;28;20032;-82
2022/01/19 10:30:05;;;;;;;25.50;16.50;;;4.90;86.50;;;;;;5078550;28;20093;-81
2022/01/19 10:32:41;;;;;;;24.20;15.32;;;4.90;86.40;;;;;;5075030;28;20036;-82
2022/01/19 10:35:22;;;;;;;32.80;20.73;;;4.90;86.40;;;;;;5073568;28;20032;-78
2022/01/19 10:38:09;;;;;;;24.73;16.20;;;4.90;86.50;;;;;;5080806;28;20467;-81
2022/01/19 10:40:36;;;;;;;27.75;17.00;;;5.00;86.60;;;;;;5067600;28;20025;-81
2022/01/19 10:43:25;;;;;;;24.48;16.65;;;5.00;86.60;;;;;;5064975;28;20028;-82
2022/01/19 10:45:50;;;;;;;20.90;13.57;;;5.00;86.50;;;;;;5067034;28;20028;-80
2022/01/19 10:48:36;;;;;;;26.70;16.80;;;5.10;86.40;;;;;;5063231;28;20613;-80
2022/01/19 10:51:07;;;;;;;22.05;14.65;;;5.10;86.50;;;;;;5064619;28;20025;-80
2022/01/19 10:53:33;;;;;;;25.30;16.23;;;5.20;86.40;;;;;;5070365;28;20431;-80
2022/01/19 10:55:58;;;;;;;20.67;14.02;;;5.20;86.40;;;;;;5069649;28;20030;-79
2022/01/19 10:58:24;;;;;;;23.77;15.52;;;5.20;86.30;;;;;;5061521;28;20297;-80
2022/01/19 11:00:54;;;;;;;30.42;19.58;;;5.20;86.20;;;;;;5063162;28;20043;-77
2022/01/19 11:03:24;;;;;;;28.60;17.67;;;5.10;86.20;;;;;;5060354;28;20115;-78
2022/01/19 11:05:52;;;;;;;20.85;13.48;;;5.10;86.30;;;;;;5064241;28;20615;-77
2022/01/19 11:08:19;;;;;;;25.02;16.80;;;5.20;86.30;;;;;;5066472;28;20635;-79
2022/01/19 11:10:50;;;;;;;27.88;18.02;;;5.20;86.20;;;;;;5062992;28;20029;-78
2022/01/19 11:13:26;;;;;;;26.63;16.55;;;5.10;86.30;;;;;;5062477;28;20033;-80
2022/01/19 11:15:52;;;;;;;28.42;17.73;;;5.20;86.50;;;;;;5064508;28;20028;-81
2022/01/19 11:18:19;;;;;;;23.23;14.05;;;5.20;86.40;;;;;;5064241;28;20028;-81
2022/01/19 11:20:47;;;;;;;24.48;15.02;;;5.20;86.50;;;;;;5074052;28;20016;-79
2022/01/19 11:23:53;;;;;;;23.15;15.00;;;5.30;86.40;;;;;;5075860;28;20107;-80
2022/01/19 11:26:27;;;;;;;23.33;14.85;;;5.20;86.40;;;;;;5056050;28;20039;-80
2022/01/19 11:28:53;;;;;;;29.90;17.95;;;5.30;86.50;;;;;;5068762;28;20787;-80
2022/01/19 11:31:24;;;;;;;22.77;15.18;;;5.30;86.40;;;;;;5064473;28;20028;-80
2022/01/19 11:33:58;;;;;;;15.80;9.90;;;5.30;86.50;;;;;;5061097;28;20093;-81
2022/01/19 11:36:42;;;;;;;31.83;19.25;;;5.40;86.40;;;;;;5057977;28;20025;-81
2022/01/19 11:39:07;;;;;;;18.52;12.82;;;5.40;86.30;;;;;;5059652;28;20078;-80
2022/01/19 11:41:42;;;;;;;25.92;18.08;;;5.40;86.30;;;;;;5062299;28;20029;-82
2022/01/19 11:44:19;;;;;;;23.17;15.38;;;5.40;86.30;;;;;;5063077;28;20119;-80
2022/01/19 11:46:53;;;;;;;28.58;18.95;;;5.30;86.30;;;;;;5056735;28;20035;-79
2022/01/19 11:49:52;;;;;;;24.38;15.48;;;5.40;86.40;;;;;;5061846;28;20025;-80
2022/01/19 11:52:20;;;;;;;26.10;17.27;;;5.30;86.50;;;;;;5064408;28;20530;-80
2022/01/19 11:54:48;;;;;;;26.75;17.67;;;5.40;86.50;;;;;;5058640;28;20036;-79
2022/01/19 11:57:26;;;;;;;26.35;16.73;;;5.40;86.50;;;;;;5059682;28;20017;-79
2022/01/19 12:00:05;;;;;;;28.52;17.17;;;5.40;86.60;;;;;;5063571;28;20050;-79
2022/01/19 12:02:36;;;;;;;29.45;18.70;;;5.40;86.60;;;;;;5074943;28;20843;-78
2022/01/19 12:05:10;;;;;;;25.58;16.60;;;5.50;86.60;;;;;;5058463;28;20568;-78
2022/01/19 12:07:38;;;;;;;28.85;16.05;;;5.50;86.70;;;;;;5067266;28;20068;-81
2022/01/19 12:10:11;;;;;;;29.05;17.00;;;5.50;86.70;;;;;;5057577;28;20021;-80
2022/01/19 12:12:47;;;;;;;;;;;5.50;86.60;;;;;;5062192;28;20101;-81
2022/01/19 12:15:57;;;;;;;24.48;15.80;;;5.50;86.50;;;;;;5065431;28;19919;-79
2022/01/19 12:18:43;;;;;;;29.95;19.15;;;5.50;86.70;;;;;;5063345;28;20067;-79
2022/01/19 12:21:11;;;;;;;31.25;19.27;;;5.50;86.60;;;;;;5065391;28;20024;-79
2022/01/19 12:23:39;;;;;;;32.88;19.90;;;5.50;86.70;;;;;;5069467;28;20475;-78
2022/01/19 12:26:06;;;;;;;24.05;15.70;;;5.50;86.80;;;;;;5069917;28;20073;-77
2022/01/19 12:28:44;;;;;;;29.48;19.08;;;5.50;86.90;;;;;;5065862;28;20544;-78
2022/01/19 12:31:37;;;;;;;31.58;19.17;;;5.50;86.90;;;;;;5071698;28;20032;-77
2022/01/19 12:34:02;;;;;;;;;;;5.50;87.00;;;;;;5074062;28;20159;-81
2022/01/19 12:36:58;;;;;;;28.05;18.30;;;5.60;86.90;;;;;;5072754;28;20457;-79
2022/01/19 12:39:26;;;;;;;21.88;14.27;;;5.60;87.00;;;;;;5072638;28;20033;-79
2022/01/19 12:42:02;;;;;;;20.48;13.55;;;5.60;86.90;;;;;;5062693;28;20085;-82
2022/01/19 12:44:34;;;;;;;28.02;18.50;;;5.70;86.90;;;;;;5059721;28;20029;-81
2022/01/19 12:47:00;;;;;;;29.38;19.77;;;5.70;86.80;;;;;;5061934;28;20542;-79
2022/01/19 12:49:27;;;;;;;30.67;19.33;;;5.70;86.80;;;;;;5062216;28;20013;-78
2022/01/19 12:51:54;;;;;;;24.20;15.65;;;5.70;86.70;;;;;;5065749;28;20075;-78
2022/01/19 12:54:26;;;;;;;26.98;18.33;;;5.80;86.70;;;;;;5072741;28;20044;-77
2022/01/19 12:57:01;;;;;;;25.88;16.80;;;5.80;86.70;;;;;;5069975;28;20110;-78
2022/01/19 12:59:28;;;;;;;30.23;18.63;;;5.80;86.60;;;;;;5073220;28;20035;-78
2022/01/19 13:01:55;;;;;;;36.90;22.48;;;5.80;86.70;;;;;;5067752;28;20080;-81
2022/01/19 13:04:25;;;;;;;23.77;15.48;;;5.80;86.60;;;;;;5069418;28;20148;-79
2022/01/19 13:06:54;;;;;;;24.88;15.77;;;5.80;86.50;;;;;;5069932;28;20039;-80
2022/01/19 13:09:27;;;;;;;23.17;15.77;;;5.90;86.60;;;;;;5063480;28;20508;-81
2022/01/19 13:11:55;;;;;;;22.55;15.07;;;5.90;86.50;;;;;;5064455;28;20036;-82
2022/01/19 13:14:23;;;;;;;28.40;17.50;;;5.90;86.50;;;;;;5064899;28;20548;-82
2022/01/19 13:16:52;;;;;;;26.00;17.45;;;5.90;86.50;;;;;;5065297;28;20051;-79
2022/01/19 13:19:26;;;;;;;20.98;14.38;;;5.90;86.50;;;;;;5060000;28;20120;-78
2022/01/19 13:22:07;;;;;;;26.25;16.83;;;5.90;86.50;;;;;;5062801;28;20492;-76
2022/01/19 13:24:36;;;;;;;28.33;18.58;;;5.90;86.40;;;;;;5061223;28;20033;-78
2022/01/19 13:27:05;;;;;;;29.77;18.88;;;5.90;86.40;;;;;;5061437;28;20016;-78
2022/01/19 13:29:36;;;;;;;30.50;18.75;;;6.00;86.50;;;;;;5060963;28;20024;-77
2022/01/19 13:32:08;;;;;;;29.58;19.00;;;6.00;86.50;;;;;;5063289;28;20353;-79
2022/01/19 13:34:56;;;;;;;27.42;15.65;;;6.00;86.50;;;;;;5051553;28;20055;-82
2022/01/19 13:37:24;;;;;;;28.60;18.65;;;6.00;86.50;;;;;;5059927;28;20025;-81
2022/01/19 13:40:15;;;;;;;24.25;16.35;;;6.00;86.30;;;;;;5061526;28;20049;-82
2022/01/19 13:42:44;;;;;;;27.58;18.15;;;6.00;86.30;;;;;;5049009;28;20127;-80
2022/01/19 13:45:35;;;;;;;26.50;18.15;;;6.00;86.20;;;;;;5062123;28;20017;-81
2022/01/19 13:50:59;;;;;;;33.35;21.55;;;6.00;86.20;;;;;;5060979;28;20047;-76
2022/01/19 13:53:34;;;;;;;29.13;20.10;;;6.00;86.30;;;;;;5056800;28;20092;-79
2022/01/19 13:56:03;;;;;;;26.38;17.10;;;6.00;86.30;;;;;;5056058;28;20016;-78
2022/01/19 13:58:47;;;;;;;30.23;18.67;;;6.00;86.30;;;;;;5066585;28;20024;-81
2022/01/19 14:01:19;;;;;;;28.00;18.73;;;6.00;86.30;;;;;;5071888;28;20077;-78
2022/01/19 14:03:51;;;;;;;30.75;18.77;;;6.00;86.30;;;;;;5063124;28;20024;-78
2022/01/19 14:06:20;;;;;;;26.90;16.92;;;6.00;86.40;;;;;;5060913;28;20024;-81
2022/01/19 14:08:46;;;;;;;30.65;20.95;;;6.00;86.30;;;;;;5070396;28;20029;-79
2022/01/19 14:11:24;;;;;;;34.38;21.10;;;6.00;86.30;;;;;;5070636;28;20025;-79
2022/01/19 14:14:07;;;;;;;32.42;21.52;;;6.00;86.30;;;;;;5065809;28;20048;-79
2022/01/19 14:16:38;;;;;;;;;;;6.00;86.30;;;;;;5062753;28;20053;-80